Time;durP1;ratioP1;P1;durP2;ratioP2;P2;SDS_P1;SDS_P2;PMS_P1;PMS_P2;Temp;Humidity;BMP_temperature;BMP_pressure;BME280_temperature;BME280_humidity;BME280_pressure;Samples;Min_cycle;Max_cycle;Signal;HPM_P1;HPM_P2
2022/06/16 00:01:29;;;;;;;;;10.00;9.50;;;;;23.26;43.59;100926.97;5030900;28;45467;-76
2022/06/16 00:03:55;;;;;;;;;14.50;9.75;;;;;23.17;43.68;100913.16;5030516;28;45679;-75
2022/06/16 00:06:21;;;;;;;;;9.00;8.00;;;;;23.15;43.41;100917.78;5026029;28;45432;-77
2022/06/16 00:08:46;;;;;;;;;7.25;7.00;;;;;23.14;43.80;100913.38;5049962;28;47227;-76
2022/06/16 00:11:19;;;;;;;;;12.75;10.50;;;;;23.13;43.75;100918.88;5048465;28;45279;-76
2022/06/16 00:13:46;;;;;;;;;8.75;8.75;;;;;23.11;43.28;100924.38;5031906;28;45468;-76
2022/06/16 00:16:12;;;;;;;;;12.25;10.50;;;;;23.09;43.30;100917.31;5031001;28;45434;-75
2022/06/16 00:18:38;;;;;;;;;9.25;8.25;;;;;23.14;43.17;100924.16;5029171;28;46647;-76
2022/06/16 00:21:05;;;;;;;;;10.00;10.00;;;;;23.11;43.47;100929.75;5020195;28;45606;-76
2022/06/16 00:23:31;;;;;;;;;10.25;9.00;;;;;23.09;43.34;100931.66;5043253;28;45499;-76
2022/06/16 00:25:56;;;;;;;;;10.00;9.75;;;;;23.07;43.89;100934.44;5035722;28;45348;-76
2022/06/16 00:28:22;;;;;;;;;9.50;9.50;;;;;23.07;43.36;100934.44;5018432;28;45585;-77
2022/06/16 00:30:48;;;;;;;;;10.00;10.00;;;;;23.05;43.61;100932.81;5011642;28;45519;-76
2022/06/16 00:33:14;;;;;;;;;8.75;8.00;;;;;23.09;43.60;100936.16;5024878;28;45388;-76
2022/06/16 00:35:39;;;;;;;;;10.75;10.25;;;;;23.09;43.60;100941.56;5031143;27;45643;-75
2022/06/16 00:38:04;;;;;;;;;11.25;9.50;;;;;23.02;43.56;100931.19;5039242;28;47092;-75
2022/06/16 00:40:30;;;;;;;;;11.75;9.50;;;;;23.00;43.90;100933.13;5037422;28;45452;-79
2022/06/16 00:42:55;;;;;;;;;9.50;9.50;;;;;22.99;43.70;100942.19;5034398;28;45430;-77
2022/06/16 00:45:43;;;;;;;;;9.75;9.75;;;;;22.98;44.12;100955.75;5018179;28;45358;-76
2022/06/16 00:48:12;;;;;;;;;9.25;9.25;;;;;22.93;44.58;100958.75;5014304;28;45493;-77
2022/06/16 00:50:42;;;;;;;;;10.25;10.25;;;;;22.88;44.23;100955.47;5014998;28;45547;-77
2022/06/16 00:53:08;;;;;;;;;11.25;11.25;;;;;22.86;44.96;100960.97;5017576;28;45501;-77
2022/06/16 00:55:34;;;;;;;;;8.00;8.00;;;;;22.76;45.06;100961.69;5036301;28;45383;-76
2022/06/16 00:58:02;;;;;;;;;8.50;8.50;;;;;22.74;45.30;100964.47;5036140;28;45562;-76
2022/06/16 01:00:37;;;;;;;;;10.75;10.00;;;;;22.71;45.51;100964.69;5034491;28;45519;-76
2022/06/16 01:03:03;;;;;;;;;10.75;9.50;;;;;22.69;45.40;100967.47;5033672;28;45444;-76
2022/06/16 01:05:28;;;;;;;;;8.25;8.00;;;;;22.68;45.41;100964.88;5034347;28;45364;-77
2022/06/16 01:07:56;;;;;;;;;9.00;9.00;;;;;22.60;45.87;100973.44;5033577;28;51468;-76
2022/06/16 01:10:26;;;;;;;;;10.75;8.25;;;;;22.57;45.68;100973.66;5018541;28;45547;-75
2022/06/16 01:15:58;;;;;;;;;13.25;11.50;;;;;22.50;46.40;100980.38;5014252;28;45412;-77
2022/06/16 01:18:28;;;;;;;;;10.25;8.00;;;;;22.41;46.40;100976.47;5013776;28;45561;-75
2022/06/16 01:21:12;;;;;;;;;9.75;9.00;;;;;22.33;46.85;100987.72;5015845;28;45333;-77
2022/06/16 01:24:21;;;;;;;;;11.00;10.00;;;;;22.30;46.62;100987.00;5035630;28;45333;-76
2022/06/16 01:27:31;;;;;;;;;13.00;9.75;;;;;22.23;47.42;100996.41;5052115;28;45847;-76
2022/06/16 01:30:05;;;;;;;;;9.75;9.25;;;;;22.15;47.70;101003.16;5006938;28;46323;-76
2022/06/16 01:32:36;;;;;;;;;10.00;9.00;;;;;22.14;47.24;100996.03;5013350;28;45562;-76
2022/06/16 01:35:30;;;;;;;;;14.25;12.00;;;;;22.15;47.40;101000.47;5013793;28;45558;-76
2022/06/16 01:38:09;;;;;;;;;11.50;11.00;;;;;22.14;47.60;100997.88;5017041;28;45423;-75
2022/06/16 01:40:48;;;;;;;;;10.25;9.50;;;;;22.12;47.66;101010.53;5014217;28;46263;-76
2022/06/16 01:43:32;;;;;;;;;13.75;12.25;;;;;22.10;48.03;101009.78;5013672;28;45355;-78
2022/06/16 01:46:09;;;;;;;;;9.75;9.00;;;;;22.06;47.99;101016.31;5013262;28;45427;-76
2022/06/16 01:48:36;;;;;;;;;8.50;8.50;;;;;22.01;48.08;101013.91;5016195;28;45575;-76
2022/06/16 01:51:12;;;;;;;;;9.25;9.25;;;;;21.95;48.31;101019.66;5037611;28;46148;-76
2022/06/16 01:53:40;;;;;;;;;12.50;10.25;;;;;21.89;48.15;101020.88;5029139;28;45463;-77
2022/06/16 01:56:27;;;;;;;;;9.50;9.00;;;;;21.87;48.70;101022.81;5033104;28;45515;-76
2022/06/16 01:59:02;;;;;;;;;5.00;5.00;;;;;21.83;48.73;101024.84;5028646;28;45572;-76
2022/06/16 02:01:35;;;;;;;;;11.75;11.25;;;;;21.78;49.26;101018.84;5012890;28;45379;-75
2022/06/16 02:04:09;;;;;;;;;12.50;10.00;;;;;21.78;49.29;101028.75;5011026;28;45698;-77
2022/06/16 02:06:41;;;;;;;;;10.25;8.75;;;;;21.79;48.75;101028.66;5013290;28;45463;-76
2022/06/16 02:09:11;;;;;;;;;9.75;8.75;;;;;21.79;48.54;101031.34;5019026;28;45473;-77
2022/06/16 02:11:40;;;;;;;;;10.00;10.00;;;;;21.77;48.71;101032.38;5033095;28;45456;-76
2022/06/16 02:14:14;;;;;;;;;9.25;8.50;;;;;21.78;49.01;101034.13;5033298;28;45681;-76
2022/06/16 02:16:41;;;;;;;;;9.50;9.50;;;;;21.76;48.50;101039.59;5034212;28;45250;-76
2022/06/16 02:19:12;;;;;;;;;9.00;9.00;;;;;21.71;49.12;101038.13;5028927;28;45506;-76
2022/06/16 02:21:46;;;;;;;;;9.00;8.75;;;;;21.69;49.08;101038.22;5043170;28;45566;-76
2022/06/16 02:24:14;;;;;;;;;10.75;10.75;;;;;21.67;48.90;101036.56;5018313;28;45561;-76
2022/06/16 02:26:41;;;;;;;;;10.25;10.00;;;;;21.65;49.31;101036.66;5022223;28;45401;-75
2022/06/16 02:29:29;;;;;;;;;10.00;10.00;;;;;21.60;49.37;101034.25;5025524;28;45333;-77
2022/06/16 02:32:31;;;;;;;;;10.75;10.75;;;;;21.58;49.55;101038.88;5013131;28;46183;-76
2022/06/16 02:35:05;;;;;;;;;12.00;10.00;;;;;21.55;49.26;101038.19;5014076;28;45334;-77
2022/06/16 02:37:44;;;;;;;;;13.50;10.50;;;;;21.50;49.67;101035.78;5018714;28;45395;-75
2022/06/16 02:40:24;;;;;;;;;13.75;10.25;;;;;21.48;49.46;101038.53;5033242;28;45458;-75
2022/06/16 02:43:01;;;;;;;;;13.00;11.75;;;;;21.46;49.69;101040.41;5012579;28;46119;-76
2022/06/16 02:45:55;;;;;;;;;11.00;11.00;;;;;21.45;49.46;101041.41;5030431;28;45502;-77
2022/06/16 02:48:28;;;;;;;;;12.00;12.00;;;;;21.43;50.02;101039.75;5034946;28;45439;-76
2022/06/16 02:51:18;;;;;;;;;13.75;13.25;;;;;21.41;49.87;101047.03;5039320;28;45380;-77
2022/06/16 02:54:11;;;;;;;;;13.00;11.00;;;;;21.38;50.01;101031.94;5034714;27;45480;-76
2022/06/16 02:56:41;;;;;;;;;14.25;14.00;;;;;21.35;50.12;101042.88;5063473;27;45517;-76
2022/06/16 02:59:13;;;;;;;;;15.25;12.00;;;;;21.30;50.50;101039.56;5032621;28;45441;-77
2022/06/16 03:01:39;;;;;;;;;14.25;14.00;;;;;21.28;50.38;101046.88;5032172;28;45365;-76
2022/06/16 03:04:09;;;;;;;;;11.50;11.50;;;;;21.23;50.46;101039.06;5036278;28;46037;-76
2022/06/16 03:06:34;;;;;;;;;14.00;13.75;;;;;21.20;50.73;101049.13;5052517;27;45330;-77
2022/06/16 03:09:00;;;;;;;;;11.25;11.25;;;;;21.19;50.62;101052.78;5052381;28;45490;-76
2022/06/16 03:11:26;;;;;;;;;11.25;11.25;;;;;21.14;50.66;101054.88;5036524;28;45500;-76
2022/06/16 03:13:51;;;;;;;;;13.00;13.00;;;;;21.12;50.73;101063.88;5031471;28;45336;-76
2022/06/16 03:16:17;;;;;;;;;12.25;11.00;;;;;21.10;50.81;101060.41;5031456;28;45329;-77
2022/06/16 03:18:42;;;;;;;;;14.00;14.00;;;;;21.06;50.80;101058.84;5038613;28;45250;-76
2022/06/16 03:21:08;;;;;;;;;15.00;13.75;;;;;21.08;51.29;101062.31;5035821;28;45509;-75
2022/06/16 03:23:35;;;;;;;;;13.75;13.75;;;;;21.00;50.85;101053.81;5031463;28;45448;-75
2022/06/16 03:26:02;;;;;;;;;14.25;14.25;;;;;21.02;51.01;101068.03;5023825;28;45631;-77
2022/06/16 03:28:27;;;;;;;;;13.50;12.50;;;;;21.00;51.10;101074.44;5012414;28;45365;-76
2022/06/16 03:30:53;;;;;;;;;13.00;12.50;;;;;21.01;51.26;101073.47;5012371;28;45251;-76
2022/06/16 03:33:19;;;;;;;;;13.00;13.00;;;;;20.99;50.85;101073.56;5012732;28;48164;-78
2022/06/16 03:35:45;;;;;;;;;13.25;13.00;;;;;20.95;51.23;101066.63;5020796;28;45634;-78
2022/06/16 03:38:36;;;;;;;;;14.50;13.50;;;;;20.94;51.39;101083.72;5032377;28;45383;-78
2022/06/16 03:41:01;;;;;;;;;13.75;13.00;;;;;20.90;51.38;101083.00;5031077;27;45423;-78
2022/06/16 03:43:26;;;;;;;;;13.00;11.25;;;;;20.86;51.71;101081.47;5027436;28;46270;-78
2022/06/16 03:45:52;;;;;;;;;13.50;13.25;;;;;20.85;51.44;101076.16;5013720;28;45454;-77
2022/06/16 03:48:17;;;;;;;;;14.00;14.00;;;;;20.83;51.36;101070.88;5018833;28;46113;-78
2022/06/16 03:50:43;;;;;;;;;13.50;13.50;;;;;20.83;51.46;101075.38;5011864;28;45421;-75
2022/06/16 03:53:08;;;;;;;;;16.00;15.00;;;;;20.84;51.63;101079.81;5019981;28;45931;-74
2022/06/16 03:55:34;;;;;;;;;11.50;9.75;;;;;20.84;51.62;101086.03;5015789;28;45503;-77
2022/06/16 03:57:59;;;;;;;;;13.25;12.50;;;;;20.86;52.07;101085.94;5012168;28;45422;-77
2022/06/16 04:00:25;;;;;;;;;13.25;13.25;;;;;20.85;51.99;101089.59;5012022;28;45506;-78
2022/06/16 04:05:37;;;;;;;;;13.00;12.50;;;;;20.86;51.78;101094.88;5031457;28;45279;-77
2022/06/16 04:08:03;;;;;;;;;9.50;9.50;;;;;20.88;51.64;101094.81;5031689;28;45533;-76
2022/06/16 04:10:28;;;;;;;;;13.25;13.25;;;;;20.92;51.47;101093.66;5030905;27;45525;-77
2022/06/16 04:12:54;;;;;;;;;14.00;14.00;;;;;20.96;51.57;101097.91;5028768;28;45489;-78
2022/06/16 04:15:19;;;;;;;;;15.50;13.00;;;;;20.94;51.58;101094.47;5011504;28;45583;-76
2022/06/16 04:17:45;;;;;;;;;12.25;12.25;;;;;20.92;51.40;101083.81;5013167;28;45491;-77
2022/06/16 04:20:13;;;;;;;;;14.00;13.00;;;;;21.11;51.14;101093.50;5016255;28;45491;-77
2022/06/16 04:22:39;;;;;;;;;16.00;16.00;;;;;21.37;50.87;101091.19;5013913;28;46338;-77
2022/06/16 04:25:08;;;;;;;;;12.00;12.00;;;;;21.63;50.01;101090.56;5011976;28;45396;-77
2022/06/16 04:27:34;;;;;;;;;12.75;12.75;;;;;21.91;49.17;101091.63;5019269;28;45484;-76
2022/06/16 04:29:59;;;;;;;;;15.00;13.75;;;;;22.31;48.64;101099.16;5035148;27;45413;-76
2022/06/16 04:32:24;;;;;;;;;15.00;14.00;;;;;22.74;47.89;101098.31;5030503;28;45357;-77
2022/06/16 04:34:50;;;;;;;;;16.00;14.50;;;;;23.18;46.89;101102.72;5011491;28;45410;-76
2022/06/16 04:37:16;;;;;;;;;11.00;11.00;;;;;23.55;45.96;101094.91;5011741;28;45399;-76
2022/06/16 04:39:41;;;;;;;;;15.00;14.25;;;;;24.01;44.85;101101.78;5010046;28;45605;-76
2022/06/16 04:42:08;;;;;;;;;15.75;14.50;;;;;24.42;43.20;101095.34;5019246;28;46329;-76
2022/06/16 04:44:34;;;;;;;;;13.75;12.25;;;;;24.85;43.21;101099.56;5017427;28;45491;-76
2022/06/16 04:47:02;;;;;;;;;13.00;12.50;;;;;25.19;42.04;101095.25;5017828;28;45256;-76
2022/06/16 04:49:28;;;;;;;;;14.50;11.25;;;;;25.59;41.28;101100.44;5011189;28;45335;-77
2022/06/16 04:51:54;;;;;;;;;12.00;12.00;;;;;26.00;40.46;101101.84;5009478;28;45574;-77
2022/06/16 04:54:19;;;;;;;;;13.75;13.25;;;;;26.43;39.51;101111.19;5018924;28;45479;-77
2022/06/16 04:56:45;;;;;;;;;14.00;14.00;;;;;26.84;38.93;101103.50;5030348;28;45464;-77
2022/06/16 04:59:10;;;;;;;;;11.00;11.00;;;;;27.29;37.99;101115.16;5019092;28;45530;-76
2022/06/16 05:01:37;;;;;;;;;12.00;12.00;;;;;27.58;37.90;101111.91;5010567;28;46171;-76
2022/06/16 05:04:02;;;;;;;;;14.75;14.00;;;;;27.94;36.57;101117.09;5010903;28;45641;-77
2022/06/16 05:06:28;;;;;;;;;11.75;11.50;;;;;28.35;35.76;101121.69;5011325;28;45432;-76
2022/06/16 05:08:53;;;;;;;;;15.75;14.25;;;;;28.77;35.63;101125.38;4994584;28;45575;-76
2022/06/16 05:11:19;;;;;;;;;13.50;10.75;;;;;29.22;34.55;101123.13;5011235;28;46605;-78
2022/06/16 05:13:44;;;;;;;;;13.75;13.25;;;;;29.62;33.77;101118.59;5022664;28;45361;-76
2022/06/16 05:16:11;;;;;;;;;13.25;12.00;;;;;30.07;32.86;101141.75;5025962;28;45466;-76
2022/06/16 05:18:36;;;;;;;;;17.25;15.25;;;;;30.33;32.52;101152.03;5013238;28;45466;-76
2022/06/16 05:21:11;;;;;;;;;14.50;12.75;;;;;30.70;31.52;101143.06;5011020;28;45464;-76
2022/06/16 05:23:36;;;;;;;;;12.00;11.00;;;;;30.95;31.35;101147.00;5011203;28;45866;-76
2022/06/16 05:26:02;;;;;;;;;7.25;7.25;;;;;31.18;30.91;101148.34;5018090;28;45470;-78
2022/06/16 05:28:28;;;;;;;;;14.50;13.50;;;;;31.65;30.60;101150.09;5019918;28;45576;-78
2022/06/16 05:30:53;;;;;;;;;17.50;15.00;;;;;31.94;29.89;101159.94;5019533;28;46247;-76
2022/06/16 05:33:19;;;;;;;;;12.25;12.00;;;;;32.31;29.35;101161.66;5033320;28;46649;-76
2022/06/16 05:36:04;;;;;;;;;17.25;16.25;;;;;32.64;28.82;101175.56;5033417;28;45794;-78
2022/06/16 05:38:29;;;;;;;;;10.75;10.25;;;;;32.90;28.38;101180.19;5032773;27;45582;-77
2022/06/16 05:41:01;;;;;;;;;8.25;8.25;;;;;33.20;27.92;101183.44;5033732;28;45402;-76
2022/06/16 05:43:29;;;;;;;;;14.50;12.75;;;;;33.46;27.12;101184.22;5036351;28;45368;-77
2022/06/16 05:45:55;;;;;;;;;12.00;12.00;;;;;33.44;27.68;101186.28;5039495;28;45467;-78
2022/06/16 05:48:21;;;;;;;;;14.00;12.00;;;;;33.87;26.55;101199.09;5053143;28;45575;-76
2022/06/16 05:50:48;;;;;;;;;12.00;12.00;;;;;34.11;26.96;101199.09;5053679;28;46546;-76
2022/06/16 05:53:14;;;;;;;;;15.00;14.00;;;;;34.40;25.83;101192.28;5052404;28;45413;-77
2022/06/16 05:55:39;;;;;;;;;12.50;12.50;;;;;34.70;26.03;101189.84;5031904;28;45464;-76
2022/06/16 05:58:05;;;;;;;;;11.50;11.50;;;;;34.88;26.04;101193.25;5032998;28;45321;-76
2022/06/16 06:00:31;;;;;;;;;10.75;10.25;;;;;35.13;25.33;101193.16;5030030;28;45372;-78
2022/06/16 06:02:58;;;;;;;;;12.50;12.50;;;;;35.38;25.11;101193.09;5044841;28;45413;-75
2022/06/16 06:05:25;;;;;;;;;14.25;13.25;;;;;35.85;25.10;101185.78;5040814;28;45469;-75
2022/06/16 06:18:48;;;;;;;;;17.00;12.75;;;;;37.59;22.44;101211.41;5013709;28;45557;-77
2022/06/16 06:21:15;;;;;;;;;9.75;9.75;;;;;37.83;22.58;101209.38;5031844;28;46150;-79
2022/06/16 06:23:41;;;;;;;;;15.50;14.25;;;;;37.94;22.11;101211.59;5033349;28;45492;-77
2022/06/16 06:26:07;;;;;;;;;13.00;13.00;;;;;37.95;22.34;101218.84;5026570;28;45482;-76
2022/06/16 06:28:33;;;;;;;;;13.00;13.00;;;;;38.00;21.72;101216.31;5029294;28;46263;-78
2022/06/16 06:30:59;;;;;;;;;13.25;13.00;;;;;38.19;21.51;101225.03;5027215;28;46213;-77
2022/06/16 06:33:24;;;;;;;;;13.75;12.00;;;;;38.45;21.60;101234.63;5011934;28;45487;-79
2022/06/16 06:35:50;;;;;;;;;14.00;14.00;;;;;38.61;21.43;101226.00;5018993;28;45423;-77
2022/06/16 06:38:15;;;;;;;;;16.50;16.50;;;;;38.71;21.31;101226.56;5033693;28;45499;-77
2022/06/16 06:40:41;;;;;;;;;15.50;14.00;;;;;38.44;21.35;101230.97;5034050;28;45478;-78
2022/06/16 06:43:07;;;;;;;;;15.50;14.50;;;;;38.44;20.94;101238.41;5038879;28;45390;-77
2022/06/16 06:45:33;;;;;;;;;14.25;12.00;;;;;38.33;21.18;101243.41;5031272;28;45426;-78
2022/06/16 06:47:58;;;;;;;;;17.75;17.00;;;;;38.56;20.90;101251.47;5047721;28;45867;-77
2022/06/16 06:50:31;;;;;;;;;18.00;16.00;;;;;38.64;20.72;101256.00;5052736;27;46023;-78
2022/06/16 06:52:56;;;;;;;;;14.00;13.00;;;;;38.68;21.07;101259.25;5051159;28;45350;-79
2022/06/16 06:55:22;;;;;;;;;14.50;13.50;;;;;38.87;20.80;101246.63;5036285;28;45451;-75
2022/06/16 06:57:51;;;;;;;;;13.25;13.25;;;;;39.12;20.67;101248.94;5033023;28;45648;-77
2022/06/16 07:00:17;;;;;;;;;13.75;13.00;;;;;39.25;20.92;101254.53;5028827;28;46221;-77
2022/06/16 07:02:43;;;;;;;;;12.50;12.50;;;;;39.31;20.07;101252.84;5011796;28;45488;-78
2022/06/16 07:05:10;;;;;;;;;11.50;11.50;;;;;39.54;19.65;101253.44;5027145;28;46065;-78
2022/06/16 07:07:36;;;;;;;;;14.50;14.50;;;;;39.54;19.63;101247.00;5032715;28;45579;-77
2022/06/16 07:10:05;;;;;;;;;13.25;13.25;;;;;39.44;19.81;101253.78;5032186;28;46007;-76
2022/06/16 07:12:30;;;;;;;;;15.25;13.00;;;;;39.72;20.13;101265.81;5039108;28;45414;-76
2022/06/16 07:14:56;;;;;;;;;15.50;13.25;;;;;40.07;19.58;101262.97;5034657;28;45419;-77
2022/06/16 07:17:23;;;;;;;;;14.25;14.25;;;;;39.96;19.75;101270.78;5032009;28;45500;-77
2022/06/16 07:19:50;;;;;;;;;16.50;14.25;;;;;39.86;19.18;101272.25;5032775;28;46433;-77
2022/06/16 07:22:16;;;;;;;;;13.00;13.00;;;;;39.76;19.58;101279.03;5031595;28;45259;-77
2022/06/16 07:24:41;;;;;;;;;12.75;12.75;;;;;39.93;19.66;101284.19;5031396;28;45256;-77
2022/06/16 07:27:08;;;;;;;;;15.00;14.50;;;;;40.15;19.15;101285.75;5032852;28;45431;-77
2022/06/16 07:29:34;;;;;;;;;14.75;14.75;;;;;40.14;19.44;101289.56;5031718;28;46157;-77
2022/06/16 07:31:59;;;;;;;;;14.50;12.00;;;;;40.30;19.02;101284.72;5029077;27;45404;-75
2022/06/16 07:34:26;;;;;;;;;13.75;12.00;;;;;40.12;18.79;101282.56;5117290;27;45503;-76
2022/06/16 07:36:51;;;;;;;;;11.00;10.25;;;;;39.65;19.18;101287.94;5135301;27;45518;-77
2022/06/16 07:39:16;;;;;;;;;13.75;13.75;;;;;39.82;19.06;101293.09;5137043;27;45501;-77
2022/06/16 07:41:42;;;;;;;;;10.25;10.25;;;;;39.86;18.95;101294.38;5030093;27;45554;-76
2022/06/16 07:44:13;;;;;;;;;12.00;12.00;;;;;39.89;18.63;101299.47;5056399;28;45422;-75
2022/06/16 07:46:42;;;;;;;;;15.00;12.25;;;;;40.39;17.83;101300.06;5044158;28;45477;-75
2022/06/16 07:49:10;;;;;;;;;11.75;11.75;;;;;40.75;18.69;101292.44;5030356;28;45506;-76
2022/06/16 07:51:35;;;;;;;;;10.00;8.00;;;;;40.28;17.68;101301.50;5032324;28;45438;-76
2022/06/16 07:54:01;;;;;;;;;12.00;10.75;;;;;39.96;18.44;101292.06;5036809;28;45548;-76
2022/06/16 07:56:26;;;;;;;;;11.25;10.25;;;;;39.78;17.61;101289.88;5033020;28;45388;-75
2022/06/16 07:58:51;;;;;;;;;9.75;9.00;;;;;39.69;18.60;101289.22;5040643;28;46977;-76
2022/06/16 08:01:17;;;;;;;;;12.00;11.75;;;;;40.24;18.69;101288.31;5032302;28;45384;-76
2022/06/16 08:03:43;;;;;;;;;6.50;6.00;;;;;39.97;18.31;101299.31;5047958;28;45537;-75
2022/06/16 08:06:12;;;;;;;;;8.50;8.50;;;;;39.98;17.60;101296.34;5035227;28;45356;-76
2022/06/16 08:08:39;;;;;;;;;13.75;13.25;;;;;40.09;17.76;101294.91;5052036;28;46214;-76
2022/06/16 08:11:05;;;;;;;;;12.00;11.25;;;;;40.54;17.68;101299.03;5035073;28;45512;-76
2022/06/16 08:13:31;;;;;;;;;8.75;8.75;;;;;40.51;17.34;101297.53;5047862;28;45381;-75
2022/06/16 08:15:57;;;;;;;;;12.75;11.25;;;;;40.47;18.21;101308.19;5048050;28;45526;-78
2022/06/16 08:18:25;;;;;;;;;6.50;6.50;;;;;40.71;16.72;101305.84;5028438;28;46636;-77
2022/06/16 08:20:52;;;;;;;;;14.00;10.50;;;;;41.01;17.42;101288.78;5031329;28;45478;-75
2022/06/16 08:23:18;;;;;;;;;12.00;8.75;;;;;41.14;16.71;101299.00;5037149;28;45379;-77
2022/06/16 08:25:46;;;;;;;;;9.00;8.00;;;;;40.73;15.08;101289.03;5032213;28;45374;-76
2022/06/16 08:28:15;;;;;;;;;9.75;9.75;;;;;40.75;15.67;101296.03;5040186;28;45440;-76
2022/06/16 08:30:44;;;;;;;;;7.25;7.25;;;;;40.74;16.11;101291.59;5030437;28;45424;-76
2022/06/16 08:33:13;;;;;;;;;9.50;7.25;;;;;40.71;15.83;101303.09;5042284;28;45597;-75
2022/06/16 08:35:44;;;;;;;;;10.50;6.50;;;;;40.79;16.56;101305.63;5049955;28;45604;-76
2022/06/16 08:38:10;;;;;;;;;8.50;7.75;;;;;41.11;16.00;101294.75;5049140;28;46392;-76
2022/06/16 08:40:48;;;;;;;;;8.00;8.00;;;;;41.07;15.54;101299.00;5042393;28;45505;-76
2022/06/16 08:43:29;;;;;;;;;11.00;10.75;;;;;41.19;14.88;101294.50;5049034;28;45742;-76
2022/06/16 08:46:00;;;;;;;;;7.00;7.00;;;;;41.24;15.61;101291.09;5040652;28;45607;-77
2022/06/16 08:48:58;;;;;;;;;7.00;7.00;;;;;41.36;16.34;101296.84;5030405;28;45506;-76
2022/06/16 08:51:45;;;;;;;;;9.25;8.50;;;;;41.64;15.04;101309.56;5035651;28;45430;-76
2022/06/16 08:54:36;;;;;;;;;8.75;8.75;;;;;41.49;14.57;101313.44;5030443;28;45376;-76
2022/06/16 08:57:25;;;;;;;;;8.00;8.00;;;;;41.18;15.70;101303.91;5040211;27;45550;-77
2022/06/16 08:59:54;;;;;;;;;9.75;8.25;;;;;41.35;15.11;101303.47;5031348;28;45428;-76
2022/06/16 09:02:47;;;;;;;;;7.75;7.75;;;;;41.54;15.79;101297.00;5035336;28;45863;-77
2022/06/16 09:05:36;;;;;;;;;9.25;8.00;;;;;41.93;15.33;101291.50;5053114;28;45453;-76
2022/06/16 09:08:28;;;;;;;;;5.25;5.25;;;;;42.06;15.10;101294.19;5041869;28;45494;-77
2022/06/16 09:11:28;;;;;;;;;12.25;11.00;;;;;41.96;14.94;101287.44;5049647;28;45414;-77
2022/06/16 09:14:19;;;;;;;;;6.75;6.75;;;;;42.16;14.92;101295.66;5084997;27;45367;-75
2022/06/16 09:17:04;;;;;;;;;5.50;5.50;;;;;42.16;15.37;101293.72;5069141;27;45913;-76
2022/06/16 09:20:01;;;;;;;;;6.75;6.50;;;;;41.82;15.68;101293.06;5082894;27;45452;-76
2022/06/16 09:22:53;;;;;;;;;8.25;8.25;;;;;41.69;14.52;101293.09;5086833;27;45488;-74
2022/06/16 09:25:43;;;;;;;;;5.00;5.00;;;;;41.71;15.28;101302.91;5045776;28;45569;-76
2022/06/16 09:28:22;;;;;;;;;8.00;6.00;;;;;41.73;14.91;101305.47;5034922;28;45538;-76
2022/06/16 09:30:52;;;;;;;;;3.00;3.00;;;;;41.60;14.99;101305.50;5041728;28;45495;-76
2022/06/16 09:33:27;;;;;;;;;5.00;5.00;;;;;41.47;14.45;101304.50;5033211;28;46545;-76
2022/06/16 09:36:01;;;;;;;;;7.25;5.25;;;;;41.17;14.80;101301.34;5054720;28;45408;-76
2022/06/16 09:38:33;;;;;;;;;4.75;4.75;;;;;40.91;14.77;101307.75;5045258;28;45524;-76
2022/06/16 09:42:32;;;;;;;;;7.50;7.50;;;;;40.69;14.90;101294.13;5039934;28;45430;-76
2022/06/16 09:44:04;;;;;;;;;7.75;7.50;;;;;40.74;15.42;101291.59;5032557;28;46165;-77
2022/06/16 09:46:36;;;;;;;;;6.75;6.75;;;;;41.16;15.65;101280.25;5033863;28;45534;-76
2022/06/16 09:49:08;;;;;;;;;8.00;7.75;;;;;41.09;14.85;101274.72;5010417;28;45422;-76
2022/06/16 09:51:40;;;;;;;;;5.00;5.00;;;;;41.01;14.12;101270.28;4994137;28;45446;-77
2022/06/16 09:54:10;;;;;;;;;6.00;4.00;;;;;40.89;14.63;101274.75;4990120;28;45438;-77
2022/06/16 09:56:46;;;;;;;;;4.50;4.50;;;;;40.60;14.47;101267.72;4994730;28;45312;-77
2022/06/16 09:59:20;;;;;;;;;8.25;8.00;;;;;40.20;14.97;101284.28;5004067;28;45522;-76
2022/06/16 10:01:50;;;;;;;;;2.00;2.00;;;;;40.00;14.84;101274.03;5003537;28;45822;-76
2022/06/16 10:04:16;;;;;;;;;5.00;5.00;;;;;40.05;15.12;101282.53;5029630;28;45971;-76
2022/06/16 10:07:23;;;;;;;;;3.50;3.50;;;;;40.07;14.91;101285.97;5045199;28;45547;-77
2022/06/16 10:10:08;;;;;;;;;4.75;4.75;;;;;40.02;15.13;101284.88;4992801;28;45548;-76
2022/06/16 10:12:55;;;;;;;;;8.75;6.75;;;;;39.64;15.17;101291.75;4992125;28;45653;-77
2022/06/16 10:15:39;;;;;;;;;4.00;4.00;;;;;39.88;14.35;101281.19;4986510;28;45641;-76
2022/06/16 10:18:06;;;;;;;;;4.25;3.00;;;;;40.01;13.88;101280.41;4981546;27;45689;-76
2022/06/16 10:20:32;;;;;;;;;5.00;5.00;;;;;40.02;15.45;101269.13;4976149;28;45379;-76
2022/06/16 10:23:23;;;;;;;;;4.00;4.00;;;;;40.18;14.22;101281.72;4990944;28;45501;-77
2022/06/16 10:25:54;;;;;;;;;5.50;5.00;;;;;39.54;14.85;101266.34;4997172;28;46163;-77
2022/06/16 10:28:31;;;;;;;;;4.25;4.25;;;;;39.39;14.93;101283.94;4997969;28;45596;-77
2022/06/16 10:30:58;;;;;;;;;5.00;5.00;;;;;39.31;15.56;101275.81;4993204;28;45539;-77
2022/06/16 10:33:26;;;;;;;;;6.00;6.00;;;;;39.54;15.98;101278.31;4993654;28;45505;-76
2022/06/16 10:36:00;;;;;;;;;7.25;7.25;;;;;39.61;14.20;101272.81;5005638;28;46151;-76
2022/06/16 10:38:39;;;;;;;;;4.50;4.50;;;;;39.31;14.92;101286.88;4986408;28;45423;-74
2022/06/16 10:41:29;;;;;;;;;7.00;5.75;;;;;39.18;15.34;101278.53;4978790;28;45596;-76
2022/06/16 10:43:56;;;;;;;;;5.25;5.25;;;;;38.77;14.17;101274.59;5007846;28;45566;-76
2022/06/16 10:46:31;;;;;;;;;4.00;4.00;;;;;38.71;15.03;101273.50;5029252;28;46228;-75
2022/06/16 10:49:00;;;;;;;;;4.00;3.00;;;;;38.67;15.55;101269.41;5025437;28;45350;-77
2022/06/16 10:51:29;;;;;;;;;3.00;3.00;;;;;38.65;15.58;101271.53;5035845;28;45536;-77
2022/06/16 10:54:03;;;;;;;;;4.50;4.50;;;;;38.74;15.47;101277.75;5038701;28;45466;-76
2022/06/16 10:56:29;;;;;;;;;2.25;2.25;;;;;39.16;16.51;101267.69;5039044;28;45417;-76
2022/06/16 10:59:18;;;;;;;;;7.00;5.00;;;;;39.49;15.06;101271.66;5026686;28;45460;-75
2022/06/16 11:01:56;;;;;;;;;3.75;3.75;;;;;39.36;14.92;101267.78;5031678;28;45508;-77
2022/06/16 11:04:34;;;;;;;;;5.00;5.00;;;;;39.06;14.91;101267.16;5029839;28;45408;-76
2022/06/16 11:07:01;;;;;;;;;4.25;4.25;;;;;39.15;14.17;101265.13;5036836;28;45624;-76
2022/06/16 11:09:29;;;;;;;;;7.00;7.00;;;;;39.23;15.13;101265.78;5037355;28;45488;-76
2022/06/16 11:12:23;;;;;;;;;4.00;4.00;;;;;39.38;14.75;101254.59;5036944;28;45462;-76
2022/06/16 11:15:04;;;;;;;;;7.00;6.00;;;;;39.37;14.51;101257.56;5033730;28;45466;-76
2022/06/16 11:17:38;;;;;;;;;8.00;8.00;;;;;39.29;15.56;101261.34;5037163;28;46668;-74
2022/06/16 11:20:26;;;;;;;;;4.75;4.75;;;;;39.29;15.62;101266.03;5038227;28;45455;-76
2022/06/16 11:22:57;;;;;;;;;5.25;5.25;;;;;39.15;15.53;101271.50;5028616;28;45499;-88
2022/06/16 11:25:36;;;;;;;;;3.00;3.00;;;;;38.81;15.97;101275.03;5022414;28;45529;-77
2022/06/16 11:28:18;;;;;;;;;8.75;7.75;;;;;38.48;16.17;101283.91;5037210;28;45398;-77
2022/06/16 11:30:49;;;;;;;;;10.00;8.00;;;;;37.95;16.86;101276.75;5034638;28;45432;-77
2022/06/16 11:36:28;;;;;;;;;7.25;7.25;;;;;37.86;16.08;101261.38;5043935;28;45544;-76
2022/06/16 11:39:05;;;;;;;;;4.00;4.00;;;;;37.88;16.03;101267.53;5035418;28;46484;-76
2022/06/16 11:41:32;;;;;;;;;4.25;4.25;;;;;37.82;16.75;101273.81;5038753;28;45411;-77
2022/06/16 11:44:25;;;;;;;;;5.50;5.50;;;;;37.55;16.63;101269.84;5033410;28;45502;-77
2022/06/16 11:47:00;;;;;;;;;6.50;5.00;;;;;37.50;17.73;101267.69;5023331;28;45528;-75
2022/06/16 11:49:58;;;;;;;;;4.75;4.75;;;;;37.52;16.63;101265.59;5030097;28;46354;-76
2022/06/16 11:52:44;;;;;;;;;4.25;4.25;;;;;37.13;16.58;101272.25;5032122;28;45454;-76
2022/06/16 11:55:19;;;;;;;;;5.25;5.25;;;;;36.68;15.51;101266.63;5038300;28;45500;-78
2022/06/16 11:57:51;;;;;;;;;6.75;5.25;;;;;36.52;16.93;101275.03;5036038;28;45423;-75